sensor_id;sensor_type;location;lat;lon;timestamp;pressure;altitude;pressure_sealevel;temperature;humidity
40592;BME280;26301;42.832;23.918;2023-01-16T00:00:49;92929.19;;;-2.16;100.00
40592;BME280;26301;42.832;23.918;2023-01-16T00:03:15;92947.47;;;-2.06;100.00
40592;BME280;26301;42.832;23.918;2023-01-16T00:05:42;92919.59;;;-2.37;100.00
40592;BME280;26301;42.832;23.918;2023-01-16T00:08:07;92934.72;;;-2.29;100.00
40592;BME280;26301;42.832;23.918;2023-01-16T00:10:33;92916.41;;;-2.39;100.00
40592;BME280;26301;42.832;23.918;2023-01-16T00:12:59;92946.91;;;-2.24;100.00
40592;BME280;26301;42.832;23.918;2023-01-16T00:15:24;92943.75;;;-2.26;100.00
40592;BME280;26301;42.832;23.918;2023-01-16T00:17:50;92940.09;;;-2.32;100.00
40592;BME280;26301;42.832;23.918;2023-01-16T00:20:16;92936.03;;;-2.41;100.00
40592;BME280;26301;42.832;23.918;2023-01-16T00:22:41;92942.31;;;-2.29;100.00
40592;BME280;26301;42.832;23.918;2023-01-16T00:25:08;92933.03;;;-2.37;100.00
40592;BME280;26301;42.832;23.918;2023-01-16T00:27:34;92928.28;;;-2.40;100.00
40592;BME280;26301;42.832;23.918;2023-01-16T00:29:59;92951.47;;;-2.20;100.00
40592;BME280;26301;42.832;23.918;2023-01-16T00:32:25;92951.63;;;-2.21;100.00
40592;BME280;26301;42.832;23.918;2023-01-16T00:34:51;92948.50;;;-2.32;100.00
40592;BME280;26301;42.832;23.918;2023-01-16T00:37:16;92955.94;;;-2.38;100.00
40592;BME280;26301;42.832;23.918;2023-01-16T00:39:42;92937.00;;;-2.50;100.00
40592;BME280;26301;42.832;23.918;2023-01-16T00:42:08;92934.47;;;-2.50;100.00
40592;BME280;26301;42.832;23.918;2023-01-16T00:44:34;92948.84;;;-2.35;100.00
40592;BME280;26301;42.832;23.918;2023-01-16T00:47:00;92939.00;;;-2.38;100.00
40592;BME280;26301;42.832;23.918;2023-01-16T00:49:27;92932.72;;;-2.50;100.00
40592;BME280;26301;42.832;23.918;2023-01-16T00:51:53;92922.28;;;-2.47;100.00
40592;BME280;26301;42.832;23.918;2023-01-16T00:54:20;92919.75;;;-2.47;100.00
40592;BME280;26301;42.832;23.918;2023-01-16T00:56:45;92935.41;;;-2.43;100.00
40592;BME280;26301;42.832;23.918;2023-01-16T00:59:11;92930.69;;;-2.46;100.00
40592;BME280;26301;42.832;23.918;2023-01-16T01:01:37;92930.69;;;-2.46;100.00
40592;BME280;26301;42.832;23.918;2023-01-16T01:04:03;92922.91;;;-2.53;100.00
40592;BME280;26301;42.832;23.918;2023-01-16T01:06:29;92875.09;;;-2.87;100.00
40592;BME280;26301;42.832;23.918;2023-01-16T01:08:55;92900.81;;;-2.59;100.00
40592;BME280;26301;42.832;23.918;2023-01-16T01:11:20;92906.69;;;-2.59;100.00
40592;BME280;26301;42.832;23.918;2023-01-16T01:13:46;92913.13;;;-2.48;100.00
40592;BME280;26301;42.832;23.918;2023-01-16T01:16:12;92913.63;;;-2.53;100.00
40592;BME280;26301;42.832;23.918;2023-01-16T01:18:39;92916.94;;;-2.52;100.00
40592;BME280;26301;42.832;23.918;2023-01-16T01:21:05;92903.97;;;-2.57;100.00
40592;BME280;26301;42.832;23.918;2023-01-16T01:23:31;92900.81;;;-2.59;100.00
40592;BME280;26301;42.832;23.918;2023-01-16T01:25:56;92908.56;;;-2.61;100.00
40592;BME280;26301;42.832;23.918;2023-01-16T01:28:22;92904.75;;;-2.65;100.00
40592;BME280;26301;42.832;23.918;2023-01-16T01:30:48;92903.97;;;-2.65;100.00
40592;BME280;26301;42.832;23.918;2023-01-16T01:33:14;92906.69;;;-2.59;100.00
40592;BME280;26301;42.832;23.918;2023-01-16T01:35:39;92888.81;;;-2.65;100.00
40592;BME280;26301;42.832;23.918;2023-01-16T01:38:05;92903.50;;;-2.61;100.00
40592;BME280;26301;42.832;23.918;2023-01-16T01:40:32;92870.66;;;-2.77;100.00
40592;BME280;26301;42.832;23.918;2023-01-16T01:42:58;92902.88;;;-2.55;100.00
40592;BME280;26301;42.832;23.918;2023-01-16T01:45:28;92884.38;;;-2.63;100.00
40592;BME280;26301;42.832;23.918;2023-01-16T01:50:47;92872.41;;;-2.78;100.00
40592;BME280;26301;42.832;23.918;2023-01-16T01:53:20;92870.38;;;-2.82;100.00
40592;BME280;26301;42.832;23.918;2023-01-16T01:55:48;92894.22;;;-2.77;100.00
40592;BME280;26301;42.832;23.918;2023-01-16T01:58:16;92886.00;;;-2.70;100.00
40592;BME280;26301;42.832;23.918;2023-01-16T02:00:49;92866.56;;;-2.86;100.00
40592;BME280;26301;42.832;23.918;2023-01-16T02:03:19;92877.91;;;-2.74;100.00
40592;BME280;26301;42.832;23.918;2023-01-16T02:05:52;92883.28;;;-2.69;100.00
40592;BME280;26301;42.832;23.918;2023-01-16T02:08:22;92884.06;;;-2.68;100.00
40592;BME280;26301;42.832;23.918;2023-01-16T02:11:11;92847.75;;;-2.84;100.00
40592;BME280;26301;42.832;23.918;2023-01-16T02:14:11;92876.53;;;-2.85;100.00
40592;BME280;26301;42.832;23.918;2023-01-16T02:16:38;92868.81;;;-3.00;100.00
40592;BME280;26301;42.832;23.918;2023-01-16T02:23:02;92841.97;;;-3.09;100.00
40592;BME280;26301;42.832;23.918;2023-01-16T02:28:33;92857.09;;;-2.92;100.00
40592;BME280;26301;42.832;23.918;2023-01-16T02:31:20;92865.47;;;-2.92;100.00
40592;BME280;26301;42.832;23.918;2023-01-16T02:36:49;92861.88;;;-2.97;100.00
40592;BME280;26301;42.832;23.918;2023-01-16T02:39:26;92852.69;;;-2.90;100.00
40592;BME280;26301;42.832;23.918;2023-01-16T02:42:13;92832.31;;;-2.97;100.00
40592;BME280;26301;42.832;23.918;2023-01-16T02:47:34;92849.19;;;-2.89;100.00
40592;BME280;26301;42.832;23.918;2023-01-16T02:50:26;92844.00;;;-2.88;100.00
40592;BME280;26301;42.832;23.918;2023-01-16T02:55:41;92808.03;;;-3.14;100.00
40592;BME280;26301;42.832;23.918;2023-01-16T02:58:09;92835.31;;;-2.93;100.00
40592;BME280;26301;42.832;23.918;2023-01-16T03:00:37;92822.69;;;-3.02;100.00
40592;BME280;26301;42.832;23.918;2023-01-16T03:03:38;92829.34;;;-3.01;100.00
40592;BME280;26301;42.832;23.918;2023-01-16T03:11:31;92802.00;;;-3.13;100.00
40592;BME280;26301;42.832;23.918;2023-01-16T03:14:23;92814.00;;;-2.99;100.00
40592;BME280;26301;42.832;23.918;2023-01-16T03:17:26;92813.03;;;-2.98;100.00
40592;BME280;26301;42.832;23.918;2023-01-16T03:23:23;92795.03;;;-2.95;100.00
40592;BME280;26301;42.832;23.918;2023-01-16T03:25:55;92792.66;;;-2.96;100.00
40592;BME280;26301;42.832;23.918;2023-01-16T03:34:21;92779.91;;;-3.03;100.00
40592;BME280;26301;42.832;23.918;2023-01-16T03:37:05;92758.94;;;-3.20;100.00
40592;BME280;26301;42.832;23.918;2023-01-16T03:39:37;92775.31;;;-3.08;100.00
40592;BME280;26301;42.832;23.918;2023-01-16T03:42:09;92777.38;;;-3.03;100.00
40592;BME280;26301;42.832;23.918;2023-01-16T03:44:44;92767.91;;;-3.09;100.00
40592;BME280;26301;42.832;23.918;2023-01-16T03:47:14;92746.59;;;-3.15;100.00
40592;BME280;26301;42.832;23.918;2023-01-16T03:49:47;92739.50;;;-3.11;100.00
40592;BME280;26301;42.832;23.918;2023-01-16T03:52:17;92751.00;;;-3.01;100.00
40592;BME280;26301;42.832;23.918;2023-01-16T03:57:29;92743.09;;;-3.06;100.00
40592;BME280;26301;42.832;23.918;2023-01-16T03:59:59;92725.78;;;-3.25;100.00
40592;BME280;26301;42.832;23.918;2023-01-16T04:02:32;92751.47;;;-3.13;100.00
40592;BME280;26301;42.832;23.918;2023-01-16T04:05:14;92720.91;;;-3.27;100.00
40592;BME280;26301;42.832;23.918;2023-01-16T04:10:19;92738.50;;;-3.02;100.00
40592;BME280;26301;42.832;23.918;2023-01-16T04:12:56;92746.59;;;-3.15;100.00
40592;BME280;26301;42.832;23.918;2023-01-16T04:15:25;92735.09;;;-3.17;100.00
40592;BME280;26301;42.832;23.918;2023-01-16T04:17:53;92725.31;;;-3.29;100.00
40592;BME280;26301;42.832;23.918;2023-01-16T04:20:20;92672.66;;;-3.48;100.00
40592;BME280;26301;42.832;23.918;2023-01-16T04:22:48;92718.19;;;-3.25;100.00
40592;BME280;26301;42.832;23.918;2023-01-16T04:25:14;92717.09;;;-3.23;100.00
40592;BME280;26301;42.832;23.918;2023-01-16T04:27:40;92741.06;;;-3.10;100.00
40592;BME280;26301;42.832;23.918;2023-01-16T04:30:06;92733.47;;;-3.10;100.00
40592;BME280;26301;42.832;23.918;2023-01-16T04:32:32;92723.53;;;-3.12;100.00
40592;BME280;26301;42.832;23.918;2023-01-16T04:34:58;92721.78;;;-3.03;100.00
40592;BME280;26301;42.832;23.918;2023-01-16T04:37:23;92728.72;;;-2.97;100.00
40592;BME280;26301;42.832;23.918;2023-01-16T04:39:49;92700.81;;;-3.12;100.00
40592;BME280;26301;42.832;23.918;2023-01-16T04:42:15;92703.47;;;-3.05;100.00
40592;BME280;26301;42.832;23.918;2023-01-16T04:44:41;92710.72;;;-3.02;100.00
40592;BME280;26301;42.832;23.918;2023-01-16T04:47:06;92709.28;;;-3.05;100.00
40592;BME280;26301;42.832;23.918;2023-01-16T04:49:32;92713.41;;;-3.04;100.00
40592;BME280;26301;42.832;23.918;2023-01-16T04:51:57;92694.00;;;-3.11;100.00
40592;BME280;26301;42.832;23.918;2023-01-16T04:54:23;92722.88;;;-2.97;100.00
40592;BME280;26301;42.832;23.918;2023-01-16T04:56:49;92715.28;;;-2.97;100.00
40592;BME280;26301;42.832;23.918;2023-01-16T04:59:14;92694.47;;;-3.16;100.00
40592;BME280;26301;42.832;23.918;2023-01-16T05:01:41;92720.03;;;-2.94;100.00
40592;BME280;26301;42.832;23.918;2023-01-16T05:04:08;92704.09;;;-3.03;100.00
40592;BME280;26301;42.832;23.918;2023-01-16T05:06:35;92700.63;;;-3.10;100.00
40592;BME280;26301;42.832;23.918;2023-01-16T05:09:02;92708.81;;;-3.00;100.00
40592;BME280;26301;42.832;23.918;2023-01-16T05:11:28;92710.84;;;-2.95;100.00
40592;BME280;26301;42.832;23.918;2023-01-16T05:13:54;92700.91;;;-2.97;100.00
40592;BME280;26301;42.832;23.918;2023-01-16T05:16:20;92685.75;;;-2.97;100.00
40592;BME280;26301;42.832;23.918;2023-01-16T05:18:46;92690.94;;;-2.90;100.00
40592;BME280;26301;42.832;23.918;2023-01-16T05:21:12;92672.81;;;-3.02;100.00
40592;BME280;26301;42.832;23.918;2023-01-16T05:23:37;92686.53;;;-2.96;100.00
40592;BME280;26301;42.832;23.918;2023-01-16T05:26:04;92696.28;;;-2.85;100.00
40592;BME280;26301;42.832;23.918;2023-01-16T05:28:31;92658.72;;;-2.96;100.00
40592;BME280;26301;42.832;23.918;2023-01-16T05:30:57;92683.66;;;-2.85;100.00
40592;BME280;26301;42.832;23.918;2023-01-16T05:33:23;92680.03;;;-2.91;100.00
40592;BME280;26301;42.832;23.918;2023-01-16T05:35:49;92673.88;;;-2.88;100.00
40592;BME280;26301;42.832;23.918;2023-01-16T05:38:16;92653.34;;;-2.93;100.00
40592;BME280;26301;42.832;23.918;2023-01-16T05:40:43;92640.28;;;-3.05;100.00
40592;BME280;26301;42.832;23.918;2023-01-16T05:43:08;92661.22;;;-2.88;100.00
40592;BME280;26301;42.832;23.918;2023-01-16T05:45:34;92661.03;;;-2.79;100.00
40592;BME280;26301;42.832;23.918;2023-01-16T05:47:59;92650.72;;;-2.77;100.00
40592;BME280;26301;42.832;23.918;2023-01-16T05:50:25;92641.94;;;-2.89;100.00
40592;BME280;26301;42.832;23.918;2023-01-16T05:52:51;92637.66;;;-2.89;100.00
40592;BME280;26301;42.832;23.918;2023-01-16T05:55:16;92617.78;;;-2.92;100.00
40592;BME280;26301;42.832;23.918;2023-01-16T05:57:42;92626.28;;;-2.85;100.00
40592;BME280;26301;42.832;23.918;2023-01-16T06:00:08;92618.38;;;-2.82;100.00
40592;BME280;26301;42.832;23.918;2023-01-16T06:02:34;92617.41;;;-2.81;100.00
40592;BME280;26301;42.832;23.918;2023-01-16T06:04:59;92599.50;;;-2.94;100.00
40592;BME280;26301;42.832;23.918;2023-01-16T06:07:25;92604.66;;;-2.87;100.00
40592;BME280;26301;42.832;23.918;2023-01-16T06:09:51;92612.25;;;-2.87;100.00
40592;BME280;26301;42.832;23.918;2023-01-16T06:12:17;92599.94;;;-2.90;100.00
40592;BME280;26301;42.832;23.918;2023-01-16T06:14:44;92598.38;;;-2.91;100.00
40592;BME280;26301;42.832;23.918;2023-01-16T06:17:10;92578.09;;;-3.06;100.00
40592;BME280;26301;42.832;23.918;2023-01-16T06:19:36;92601.31;;;-2.80;100.00
40592;BME280;26301;42.832;23.918;2023-01-16T06:22:02;92616.75;;;-2.74;100.00
40592;BME280;26301;42.832;23.918;2023-01-16T06:24:27;92602.84;;;-2.70;100.00
40592;BME280;26301;42.832;23.918;2023-01-16T06:26:53;92603.56;;;-2.62;100.00
40592;BME280;26301;42.832;23.918;2023-01-16T06:29:19;92597.44;;;-2.67;100.00
40592;BME280;26301;42.832;23.918;2023-01-16T06:31:44;92578.94;;;-2.68;100.00
40592;BME280;26301;42.832;23.918;2023-01-16T06:34:10;92581.81;;;-2.71;100.00
40592;BME280;26301;42.832;23.918;2023-01-16T06:36:36;92570.06;;;-2.64;100.00
40592;BME280;26301;42.832;23.918;2023-01-16T06:39:02;92585.63;;;-2.52;100.00
40592;BME280;26301;42.832;23.918;2023-01-16T06:41:28;92582.44;;;-2.46;100.00
40592;BME280;26301;42.832;23.918;2023-01-16T06:43:53;92572.56;;;-2.41;100.00
40592;BME280;26301;42.832;23.918;2023-01-16T06:46:19;92598.81;;;-2.19;100.00
40592;BME280;26301;42.832;23.918;2023-01-16T06:48:45;92611.06;;;-2.08;100.00
40592;BME280;26301;42.832;23.918;2023-01-16T06:51:10;92617.38;;;-1.89;100.00
40592;BME280;26301;42.832;23.918;2023-01-16T06:53:37;92603.50;;;-1.78;100.00
40592;BME280;26301;42.832;23.918;2023-01-16T06:56:03;92601.75;;;-1.63;100.00
40592;BME280;26301;42.832;23.918;2023-01-16T06:58:28;92595.19;;;-1.57;100.00
40592;BME280;26301;42.832;23.918;2023-01-16T07:00:54;92578.78;;;-1.31;100.00
40592;BME280;26301;42.832;23.918;2023-01-16T07:03:20;92595.84;;;-1.04;100.00
40592;BME280;26301;42.832;23.918;2023-01-16T07:05:47;92564.81;;;-1.06;100.00
40592;BME280;26301;42.832;23.918;2023-01-16T07:08:13;92580.88;;;-0.84;100.00
40592;BME280;26301;42.832;23.918;2023-01-16T07:10:39;92564.78;;;-0.91;100.00
40592;BME280;26301;42.832;23.918;2023-01-16T07:13:05;92582.03;;;-0.65;100.00
40592;BME280;26301;42.832;23.918;2023-01-16T07:15:31;92570.91;;;-0.64;100.00
40592;BME280;26301;42.832;23.918;2023-01-16T07:18:16;92580.28;;;-0.43;100.00
40592;BME280;26301;42.832;23.918;2023-01-16T07:21:09;92597.56;;;-0.32;100.00
40592;BME280;26301;42.832;23.918;2023-01-16T07:24:06;92585.03;;;-0.33;100.00
40592;BME280;26301;42.832;23.918;2023-01-16T07:26:34;92606.81;;;0.04;100.00
40592;BME280;26301;42.832;23.918;2023-01-16T07:29:01;92592.19;;;0.06;100.00
40592;BME280;26301;42.832;23.918;2023-01-16T07:31:28;92610.13;;;0.33;100.00
40592;BME280;26301;42.832;23.918;2023-01-16T07:33:54;92612.56;;;0.48;100.00
40592;BME280;26301;42.832;23.918;2023-01-16T07:36:20;92610.31;;;0.66;100.00
40592;BME280;26301;42.832;23.918;2023-01-16T07:38:46;92606.16;;;0.93;100.00
40592;BME280;26301;42.832;23.918;2023-01-16T07:41:11;92588.03;;;1.03;100.00
40592;BME280;26301;42.832;23.918;2023-01-16T07:43:37;92574.34;;;1.17;100.00
40592;BME280;26301;42.832;23.918;2023-01-16T07:46:03;92563.41;;;1.23;100.00
40592;BME280;26301;42.832;23.918;2023-01-16T07:48:28;92571.31;;;1.42;100.00
40592;BME280;26301;42.832;23.918;2023-01-16T07:50:56;92583.81;;;1.50;100.00
40592;BME280;26301;42.832;23.918;2023-01-16T07:53:23;92595.03;;;1.69;100.00
40592;BME280;26301;42.832;23.918;2023-01-16T07:55:53;92594.06;;;1.96;95.32
40592;BME280;26301;42.832;23.918;2023-01-16T07:58:20;92607.97;;;2.20;96.25
40592;BME280;26301;42.832;23.918;2023-01-16T08:00:49;92586.41;;;2.36;89.55
40592;BME280;26301;42.832;23.918;2023-01-16T08:03:16;92587.56;;;2.54;86.97
40592;BME280;26301;42.832;23.918;2023-01-16T08:05:42;92568.13;;;2.52;86.74
40592;BME280;26301;42.832;23.918;2023-01-16T08:08:12;92607.09;;;2.73;88.71
40592;BME280;26301;42.832;23.918;2023-01-16T08:10:38;92594.19;;;2.61;84.30
40592;BME280;26301;42.832;23.918;2023-01-16T08:13:03;92609.09;;;2.71;85.78
40592;BME280;26301;42.832;23.918;2023-01-16T08:15:29;92616.88;;;2.83;86.98
40592;BME280;26301;42.832;23.918;2023-01-16T08:17:55;92600.59;;;2.90;79.09
40592;BME280;26301;42.832;23.918;2023-01-16T08:20:21;92606.63;;;3.03;82.18
40592;BME280;26301;42.832;23.918;2023-01-16T08:22:49;92596.09;;;2.92;81.34
40592;BME280;26301;42.832;23.918;2023-01-16T08:25:22;92586.59;;;3.06;82.35
40592;BME280;26301;42.832;23.918;2023-01-16T08:27:48;92578.59;;;2.96;80.06
40592;BME280;26301;42.832;23.918;2023-01-16T08:30:15;92582.47;;;3.05;83.63
40592;BME280;26301;42.832;23.918;2023-01-16T08:32:41;92614.56;;;3.33;81.70
40592;BME280;26301;42.832;23.918;2023-01-16T08:35:08;92600.66;;;3.29;81.19
40592;BME280;26301;42.832;23.918;2023-01-16T08:37:34;92605.50;;;3.43;82.18
40592;BME280;26301;42.832;23.918;2023-01-16T08:39:59;92591.84;;;3.56;84.12
40592;BME280;26301;42.832;23.918;2023-01-16T08:42:25;92581.81;;;3.61;82.24
40592;BME280;26301;42.832;23.918;2023-01-16T08:45:10;92597.78;;;3.82;82.23
40592;BME280;26301;42.832;23.918;2023-01-16T08:47:55;92590.03;;;3.95;80.49
40592;BME280;26301;42.832;23.918;2023-01-16T08:50:40;92599.91;;;4.17;76.92
40592;BME280;26301;42.832;23.918;2023-01-16T08:53:24;92591.28;;;4.11;76.22
40592;BME280;26301;42.832;23.918;2023-01-16T08:55:50;92567.81;;;4.21;76.17
40592;BME280;26301;42.832;23.918;2023-01-16T08:58:16;92569.28;;;4.10;73.04
40592;BME280;26301;42.832;23.918;2023-01-16T09:00:41;92594.53;;;4.25;74.76
40592;BME280;26301;42.832;23.918;2023-01-16T09:03:07;92593.88;;;4.29;74.94
40592;BME280;26301;42.832;23.918;2023-01-16T09:05:33;92587.81;;;4.30;72.97
40592;BME280;26301;42.832;23.918;2023-01-16T09:07:58;92586.56;;;4.33;74.41
40592;BME280;26301;42.832;23.918;2023-01-16T09:10:24;92573.94;;;4.38;75.86
40592;BME280;26301;42.832;23.918;2023-01-16T09:12:50;92576.34;;;4.58;71.77
40592;BME280;26301;42.832;23.918;2023-01-16T09:15:35;92535.47;;;4.51;70.79
40592;BME280;26301;42.832;23.918;2023-01-16T09:18:00;92544.00;;;4.64;70.74
40592;BME280;26301;42.832;23.918;2023-01-16T09:20:26;92548.03;;;4.90;70.71
40592;BME280;26301;42.832;23.918;2023-01-16T09:22:59;92540.94;;;4.92;71.99
40592;BME280;26301;42.832;23.918;2023-01-16T09:25:25;92536.81;;;4.91;72.74
40592;BME280;26301;42.832;23.918;2023-01-16T09:27:50;92529.97;;;5.03;72.25
40592;BME280;26301;42.832;23.918;2023-01-16T09:30:16;92519.59;;;4.98;74.75
40592;BME280;26301;42.832;23.918;2023-01-16T09:32:44;92536.22;;;5.07;69.81
40592;BME280;26301;42.832;23.918;2023-01-16T09:35:10;92538.50;;;5.15;70.97
40592;BME280;26301;42.832;23.918;2023-01-16T09:37:35;92517.72;;;5.05;70.29
40592;BME280;26301;42.832;23.918;2023-01-16T09:40:01;92502.03;;;5.01;69.31
40592;BME280;26301;42.832;23.918;2023-01-16T09:45:26;92463.72;;;4.95;66.21
40592;BME280;26301;42.832;23.918;2023-01-16T09:47:55;92510.69;;;5.19;67.91
40592;BME280;26301;42.832;23.918;2023-01-16T09:50:36;92507.72;;;5.34;65.17
40592;BME280;26301;42.832;23.918;2023-01-16T09:53:08;92492.13;;;5.35;65.35
40592;BME280;26301;42.832;23.918;2023-01-16T09:55:56;92499.97;;;5.52;64.30
40592;BME280;26301;42.832;23.918;2023-01-16T09:58:48;92482.25;;;5.39;66.08
40592;BME280;26301;42.832;23.918;2023-01-16T10:01:28;92491.38;;;5.46;66.32
40592;BME280;26301;42.832;23.918;2023-01-16T10:04:19;92482.63;;;5.54;66.75
40592;BME280;26301;42.832;23.918;2023-01-16T10:09:44;92474.47;;;5.45;65.13
40592;BME280;26301;42.832;23.918;2023-01-16T10:12:14;92440.78;;;5.18;66.02
40592;BME280;26301;42.832;23.918;2023-01-16T10:20:30;92465.31;;;5.38;68.84
40592;BME280;26301;42.832;23.918;2023-01-16T10:26:30;92474.00;;;5.07;68.68
40592;BME280;26301;42.832;23.918;2023-01-16T10:29:06;92477.66;;;4.99;67.74
40592;BME280;26301;42.832;23.918;2023-01-16T10:37:13;92476.75;;;4.75;69.80
40592;BME280;26301;42.832;23.918;2023-01-16T10:39:39;92453.97;;;4.73;69.97
40592;BME280;26301;42.832;23.918;2023-01-16T10:42:26;92468.81;;;4.65;67.39
40592;BME280;26301;42.832;23.918;2023-01-16T10:45:15;92441.78;;;4.39;68.68
40592;BME280;26301;42.832;23.918;2023-01-16T10:48:01;92437.38;;;4.46;69.33
40592;BME280;26301;42.832;23.918;2023-01-16T10:50:46;92454.41;;;4.52;69.04
40592;BME280;26301;42.832;23.918;2023-01-16T10:53:12;92460.88;;;4.54;69.97
40592;BME280;26301;42.832;23.918;2023-01-16T10:55:42;92442.00;;;4.37;71.75
40592;BME280;26301;42.832;23.918;2023-01-16T10:58:34;92441.00;;;4.20;71.97
40592;BME280;26301;42.832;23.918;2023-01-16T11:01:16;92432.63;;;4.12;70.45
40592;BME280;26301;42.832;23.918;2023-01-16T11:06:27;92420.81;;;4.11;70.17
40592;BME280;26301;42.832;23.918;2023-01-16T11:09:04;92424.47;;;4.22;71.26
40592;BME280;26301;42.832;23.918;2023-01-16T11:11:35;92413.28;;;4.35;70.65
40592;BME280;26301;42.832;23.918;2023-01-16T11:14:22;92423.38;;;4.30;66.62
40592;BME280;26301;42.832;23.918;2023-01-16T11:20:28;92392.84;;;4.35;68.39
40592;BME280;26301;42.832;23.918;2023-01-16T11:23:22;92399.19;;;4.63;66.31
40592;BME280;26301;42.832;23.918;2023-01-16T11:25:50;92394.78;;;4.70;66.02
40592;BME280;26301;42.832;23.918;2023-01-16T11:28:24;92399.06;;;4.88;64.31
40592;BME280;26301;42.832;23.918;2023-01-16T11:30:51;92398.97;;;4.94;63.55
40592;BME280;26301;42.832;23.918;2023-01-16T11:33:21;92401.97;;;4.91;63.66
40592;BME280;26301;42.832;23.918;2023-01-16T11:35:54;92377.03;;;4.87;64.65
40592;BME280;26301;42.832;23.918;2023-01-16T11:38:21;92358.94;;;5.00;63.33
40592;BME280;26301;42.832;23.918;2023-01-16T11:40:48;92394.75;;;5.00;63.83
40592;BME280;26301;42.832;23.918;2023-01-16T11:43:18;92368.47;;;4.93;63.02
40592;BME280;26301;42.832;23.918;2023-01-16T11:48:54;92357.81;;;5.08;63.58
40592;BME280;26301;42.832;23.918;2023-01-16T11:51:28;92359.50;;;5.14;63.62
40592;BME280;26301;42.832;23.918;2023-01-16T11:53:55;92362.06;;;5.25;63.42
40592;BME280;26301;42.832;23.918;2023-01-16T12:11:07;92304.72;;;5.50;63.47
40592;BME280;26301;42.832;23.918;2023-01-16T12:17:06;92271.22;;;5.40;63.71
40592;BME280;26301;42.832;23.918;2023-01-16T12:22:42;92301.50;;;5.78;61.80
40592;BME280;26301;42.832;23.918;2023-01-16T12:25:33;92301.13;;;5.74;62.24
40592;BME280;26301;42.832;23.918;2023-01-16T12:34:32;92306.47;;;5.85;61.00
40592;BME280;26301;42.832;23.918;2023-01-16T12:45:55;92310.06;;;5.72;64.48
40592;BME280;26301;42.832;23.918;2023-01-16T12:48:34;92292.34;;;5.70;65.19
40592;BME280;26301;42.832;23.918;2023-01-16T12:56:38;92274.00;;;5.50;64.58
40592;BME280;26301;42.832;23.918;2023-01-16T13:02:13;92274.00;;;5.38;64.48
40592;BME280;26301;42.832;23.918;2023-01-16T13:04:46;92274.25;;;5.48;65.95
40592;BME280;26301;42.832;23.918;2023-01-16T13:07:16;92224.25;;;5.22;65.17
40592;BME280;26301;42.832;23.918;2023-01-16T13:12:19;92258.31;;;5.46;65.38
40592;BME280;26301;42.832;23.918;2023-01-16T13:15:09;92224.56;;;5.38;65.45
40592;BME280;26301;42.832;23.918;2023-01-16T13:17:49;92253.53;;;5.38;65.07
40592;BME280;26301;42.832;23.918;2023-01-16T13:20:18;92244.75;;;5.34;66.30
40592;BME280;26301;42.832;23.918;2023-01-16T13:23:09;92235.19;;;5.06;67.51
40592;BME280;26301;42.832;23.918;2023-01-16T13:25:41;92248.00;;;5.06;68.11
40592;BME280;26301;42.832;23.918;2023-01-16T13:28:32;92253.00;;;5.01;67.97
40592;BME280;26301;42.832;23.918;2023-01-16T13:31:04;92235.31;;;4.88;67.95
40592;BME280;26301;42.832;23.918;2023-01-16T13:33:34;92242.19;;;4.99;69.72
40592;BME280;26301;42.832;23.918;2023-01-16T13:41:35;92230.72;;;5.01;69.04
40592;BME280;26301;42.832;23.918;2023-01-16T13:44:22;92209.59;;;4.94;68.96
40592;BME280;26301;42.832;23.918;2023-01-16T13:47:21;92202.25;;;4.86;68.03
40592;BME280;26301;42.832;23.918;2023-01-16T13:49:52;92187.34;;;4.83;69.23
40592;BME280;26301;42.832;23.918;2023-01-16T13:52:27;92172.22;;;4.81;68.07
40592;BME280;26301;42.832;23.918;2023-01-16T13:54:56;92180.56;;;4.89;69.67
40592;BME280;26301;42.832;23.918;2023-01-16T13:57:24;92178.00;;;4.89;69.68
40592;BME280;26301;42.832;23.918;2023-01-16T13:59:57;92156.00;;;4.76;71.08
40592;BME280;26301;42.832;23.918;2023-01-16T14:10:45;92140.94;;;5.03;68.74
40592;BME280;26301;42.832;23.918;2023-01-16T14:18:40;92192.34;;;4.66;71.06
40592;BME280;26301;42.832;23.918;2023-01-16T14:21:38;92164.53;;;4.46;72.10
40592;BME280;26301;42.832;23.918;2023-01-16T14:24:00;92175.66;;;4.40;72.80
40592;BME280;26301;42.832;23.918;2023-01-16T14:26:57;92160.03;;;4.18;73.77
40592;BME280;26301;42.832;23.918;2023-01-16T14:29:36;92163.69;;;4.10;73.72
40592;BME280;26301;42.832;23.918;2023-01-16T14:34:40;92178.81;;;4.00;74.72
40592;BME280;26301;42.832;23.918;2023-01-16T14:37:21;92180.91;;;4.03;74.98
40592;BME280;26301;42.832;23.918;2023-01-16T14:40:02;92177.50;;;4.09;74.05
40592;BME280;26301;42.832;23.918;2023-01-16T14:42:33;92158.88;;;3.90;74.26
40592;BME280;26301;42.832;23.918;2023-01-16T14:54:11;92202.56;;;4.01;73.95
40592;BME280;26301;42.832;23.918;2023-01-16T14:57:15;92198.00;;;4.03;73.80
40592;BME280;26301;42.832;23.918;2023-01-16T14:59:49;92205.75;;;4.26;71.06
40592;BME280;26301;42.832;23.918;2023-01-16T15:02:21;92198.06;;;4.26;73.41
40592;BME280;26301;42.832;23.918;2023-01-16T15:05:09;92193.56;;;4.40;69.45
40592;BME280;26301;42.832;23.918;2023-01-16T15:10:13;92188.41;;;4.28;70.43
40592;BME280;26301;42.832;23.918;2023-01-16T15:12:43;92173.63;;;4.42;69.47
40592;BME280;26301;42.832;23.918;2023-01-16T15:15:27;92148.16;;;4.24;70.91
40592;BME280;26301;42.832;23.918;2023-01-16T15:17:56;92157.75;;;4.40;70.02
40592;BME280;26301;42.832;23.918;2023-01-16T15:20:42;92133.06;;;4.34;68.83
40592;BME280;26301;42.832;23.918;2023-01-16T15:23:33;92158.28;;;4.42;69.25
40592;BME280;26301;42.832;23.918;2023-01-16T15:26:15;92173.31;;;4.39;69.24
40592;BME280;26301;42.832;23.918;2023-01-16T15:31:40;92169.09;;;4.44;69.50
40592;BME280;26301;42.832;23.918;2023-01-16T15:36:41;92146.19;;;4.49;68.16
40592;BME280;26301;42.832;23.918;2023-01-16T15:41:50;92119.59;;;4.39;69.76
40592;BME280;26301;42.832;23.918;2023-01-16T15:44:39;92119.50;;;4.57;71.66
40592;BME280;26301;42.832;23.918;2023-01-16T15:52:42;92113.50;;;4.63;68.23